createdAt,value
2022-07-29T00:01:19.977Z,54.57
2022-07-29T00:03:49.093Z,56.61
2022-07-29T00:06:17.793Z,63.12
2022-07-29T00:08:45.761Z,64.17
2022-07-29T00:11:13.993Z,57.39
2022-07-29T00:13:41.815Z,55.63
2022-07-29T00:16:09.675Z,57.11
2022-07-29T00:18:37.519Z,63.19
2022-07-29T00:21:05.268Z,65.35
2022-07-29T00:23:36.687Z,61.66
2022-07-29T00:26:04.911Z,56.13
2022-07-29T00:28:33.004Z,55.35
2022-07-29T00:31:00.838Z,58.34
2022-07-29T00:33:30.408Z,64.37
2022-07-29T00:35:58.138Z,66.26
2022-07-29T00:38:26.022Z,61.89
2022-07-29T00:40:53.827Z,57.48
2022-07-29T00:43:22.119Z,57.16
2022-07-29T00:45:50.083Z,61.37
2022-07-29T00:48:17.905Z,64.81
2022-07-29T00:50:45.818Z,62.34
2022-07-29T00:53:19.135Z,58.34
2022-07-29T00:55:50.017Z,56.67
2022-07-29T00:58:20.690Z,59.09
2022-07-29T01:00:48.698Z,65.59
2022-07-29T01:03:21.564Z,66.48
2022-07-29T01:05:52.516Z,62.59
2022-07-29T01:08:21.901Z,57.40
2022-07-29T01:10:51.325Z,56.16
2022-07-29T01:13:20.113Z,58.48
2022-07-29T01:16:03.205Z,64.09
2022-07-29T01:18:40.812Z,66.89
2022-07-29T01:22:27.734Z,63.34
2022-07-29T01:25:31.253Z,55.68
2022-07-29T01:28:04.650Z,56.22
2022-07-29T01:30:34.726Z,62.79
2022-07-29T01:33:09.120Z,64.07
2022-07-29T01:35:41.755Z,61.11
2022-07-29T01:38:13.724Z,55.89
2022-07-29T01:40:52.438Z,56.54
2022-07-29T01:43:28.291Z,62.44
2022-07-29T01:46:08.991Z,63.15
2022-07-29T01:48:56.199Z,57.79
2022-07-29T01:51:36.960Z,56.97
2022-07-29T01:54:38.414Z,59.26
2022-07-29T01:57:10.712Z,66.57
2022-07-29T01:59:40.084Z,66.03
2022-07-29T02:02:12.144Z,62.11
2022-07-29T02:04:44.140Z,61.00
2022-07-29T02:07:17.006Z,57.70
2022-07-29T02:09:48.553Z,56.84
2022-07-29T02:12:19.957Z,61.87
2022-07-29T02:14:54.130Z,63.61
2022-07-29T02:17:28.948Z,61.99
2022-07-29T02:20:02.957Z,60.92
2022-07-29T02:22:35.018Z,60.20
2022-07-29T02:25:03.781Z,57.16
2022-07-29T02:27:35.899Z,57.18
2022-07-29T02:30:06.778Z,61.74
2022-07-29T02:32:38.827Z,64.02
2022-07-29T02:35:10.681Z,62.22
2022-07-29T02:37:39.683Z,60.88
2022-07-29T02:40:12.679Z,60.13
2022-07-29T02:42:44.942Z,60.03
2022-07-29T02:45:12.804Z,59.67
2022-07-29T02:47:49.631Z,57.18
2022-07-29T02:50:35.020Z,57.31
2022-07-29T02:53:17.739Z,61.87
2022-07-29T02:55:56.445Z,63.24
2022-07-29T02:58:35.503Z,62.11
2022-07-29T03:01:14.036Z,61.10
2022-07-29T03:03:46.739Z,60.87
2022-07-29T03:06:31.043Z,60.94
2022-07-29T03:09:13.334Z,61.00
2022-07-29T03:11:49.627Z,60.13
2022-07-29T03:14:20.714Z,60.02
2022-07-29T03:16:51.133Z,59.95
2022-07-29T03:19:21.348Z,59.58
2022-07-29T03:21:49.485Z,57.21
2022-07-29T03:24:36.546Z,57.33
2022-07-29T03:27:05.899Z,62.08
2022-07-29T03:29:34.658Z,64.18
2022-07-29T03:32:08.272Z,62.29
2022-07-29T03:34:39.126Z,60.93
2022-07-29T03:37:07.775Z,60.57
2022-07-29T03:39:42.569Z,58.03
2022-07-29T03:42:16.355Z,57.36
2022-07-29T03:44:48.579Z,62.20
2022-07-29T03:47:23.342Z,63.89
2022-07-29T03:50:15.555Z,62.31
2022-07-29T03:52:45.441Z,61.06
2022-07-29T03:55:15.291Z,59.13
2022-07-29T03:57:45.418Z,57.18
2022-07-29T04:00:13.836Z,58.44
2022-07-29T04:02:42.925Z,62.65
2022-07-29T04:05:14.500Z,64.11
2022-07-29T04:07:46.775Z,62.72
2022-07-29T04:10:16.857Z,57.25
2022-07-29T04:12:44.728Z,53.96
2022-07-29T04:15:12.945Z,53.19
2022-07-29T04:17:40.772Z,53.01
2022-07-29T04:20:09.429Z,52.41
2022-07-29T04:22:37.235Z,51.32
2022-07-29T04:25:05.423Z,50.22
2022-07-29T04:27:33.293Z,49.61
2022-07-29T04:30:01.101Z,49.68
2022-07-29T04:32:28.902Z,50.48
2022-07-29T04:34:56.652Z,52.12
2022-07-29T04:37:24.671Z,53.36
2022-07-29T04:39:52.482Z,53.97
2022-07-29T04:42:26.670Z,54.51
2022-07-29T04:44:55.854Z,55.78
2022-07-29T04:47:23.808Z,56.08
2022-07-29T04:49:51.697Z,55.79
2022-07-29T04:52:19.561Z,56.52
2022-07-29T04:54:47.273Z,53.97
2022-07-29T04:57:15.296Z,51.56
2022-07-29T04:59:43.094Z,49.18
2022-07-29T05:02:10.991Z,48.50
2022-07-29T05:04:38.795Z,48.59
2022-07-29T05:07:06.557Z,48.84
2022-07-29T05:09:34.297Z,48.57
2022-07-29T05:12:03.007Z,47.91
2022-07-29T05:14:30.758Z,45.87
2022-07-29T05:16:58.618Z,44.94
2022-07-29T05:19:26.645Z,45.18
2022-07-29T05:21:54.445Z,45.94
2022-07-29T05:24:22.301Z,46.52
2022-07-29T05:26:50.213Z,47.21
2022-07-29T05:29:43.403Z,47.54
2022-07-29T05:32:06.521Z,46.64
2022-07-29T05:34:34.767Z,47.23
2022-07-29T05:37:02.701Z,47.84
2022-07-29T05:39:47.311Z,47.56
2022-07-29T05:42:17.004Z,46.97
2022-07-29T05:44:44.785Z,49.28
2022-07-29T05:47:12.708Z,51.25
2022-07-29T05:49:40.533Z,51.78
2022-07-29T05:52:08.638Z,51.52
2022-07-29T05:54:37.116Z,51.32
2022-07-29T05:57:04.924Z,52.56
2022-07-29T05:59:37.813Z,51.61
2022-07-29T06:02:06.296Z,52.10
2022-07-29T06:04:35.078Z,53.10
2022-07-29T06:07:06.561Z,52.94
2022-07-29T06:09:36.333Z,52.87
2022-07-29T06:12:04.966Z,52.59
2022-07-29T06:14:33.851Z,53.77
2022-07-29T06:17:03.035Z,53.59
2022-07-29T06:19:31.178Z,54.02
2022-07-29T06:21:59.159Z,54.21
2022-07-29T06:24:26.982Z,54.19
2022-07-29T06:26:57.610Z,54.47
2022-07-29T06:29:25.807Z,54.33
2022-07-29T06:31:53.622Z,52.77
2022-07-29T06:34:21.402Z,54.29
2022-07-29T06:36:50.840Z,54.58
2022-07-29T06:39:20.799Z,53.70
2022-07-29T06:41:50.615Z,53.88
2022-07-29T06:44:20.331Z,54.34
2022-07-29T06:46:50.909Z,53.71
2022-07-29T06:49:18.817Z,54.33
2022-07-29T06:51:47.712Z,53.78
2022-07-29T06:54:15.644Z,53.70
2022-07-29T06:56:44.343Z,54.72
2022-07-29T06:59:13.582Z,54.55
2022-07-29T07:01:44.445Z,54.33
2022-07-29T07:04:12.968Z,54.11
2022-07-29T07:06:41.006Z,54.31
2022-07-29T07:09:09.493Z,53.88
2022-07-29T07:11:37.825Z,53.84
2022-07-29T07:14:05.643Z,53.79
2022-07-29T07:16:33.570Z,54.02
2022-07-29T07:19:02.124Z,54.56
2022-07-29T07:21:31.090Z,53.98
2022-07-29T07:24:00.846Z,53.57
2022-07-29T07:26:29.496Z,53.29
2022-07-29T07:28:57.669Z,53.60
2022-07-29T07:31:25.618Z,54.23
2022-07-29T07:33:54.693Z,53.70
2022-07-29T07:36:24.272Z,55.06
2022-07-29T07:38:52.051Z,55.38
2022-07-29T07:41:20.071Z,53.63
2022-07-29T07:43:48.084Z,52.57
2022-07-29T07:46:16.454Z,53.08
2022-07-29T07:48:44.787Z,53.09
2022-07-29T07:51:12.858Z,53.19
2022-07-29T07:53:40.746Z,53.57
2022-07-29T07:56:10.977Z,53.37
2022-07-29T07:58:40.336Z,52.53
2022-07-29T08:01:09.452Z,50.88
2022-07-29T08:03:37.413Z,51.27
2022-07-29T08:06:06.659Z,52.04
2022-07-29T08:08:34.832Z,52.73
2022-07-29T08:11:08.991Z,51.68
2022-07-29T08:13:39.217Z,52.89
2022-07-29T08:16:17.476Z,52.30
2022-07-29T08:18:47.364Z,51.76
2022-07-29T08:21:16.708Z,51.06
2022-07-29T08:23:52.691Z,50.06
2022-07-29T08:26:23.675Z,47.23
2022-07-29T08:28:52.002Z,47.23
2022-07-29T08:31:19.982Z,48.88
2022-07-29T08:33:47.916Z,48.91
2022-07-29T08:36:15.670Z,47.87
2022-07-29T08:38:43.543Z,47.48
2022-07-29T08:41:11.343Z,47.26
2022-07-29T08:43:42.174Z,47.55
2022-07-29T08:46:10.122Z,47.71
2022-07-29T08:48:38.655Z,48.23
2022-07-29T08:51:09.190Z,48.83
2022-07-29T08:53:39.246Z,47.48
2022-07-29T08:56:07.649Z,46.70
2022-07-29T08:58:37.047Z,47.98
2022-07-29T09:01:12.284Z,47.44
2022-07-29T09:03:42.637Z,46.92
2022-07-29T09:06:14.892Z,45.27
2022-07-29T09:08:43.482Z,43.29
2022-07-29T09:11:14.171Z,42.21
2022-07-29T09:13:42.263Z,41.95
2022-07-29T09:16:11.020Z,42.54
2022-07-29T09:18:43.035Z,43.43
2022-07-29T09:21:36.563Z,44.02
2022-07-29T09:24:09.404Z,43.30
2022-07-29T09:26:46.365Z,43.13
2022-07-29T09:29:25.945Z,43.06
2022-07-29T09:31:56.221Z,42.63
2022-07-29T09:34:30.828Z,43.43
2022-07-29T09:36:59.141Z,44.14
2022-07-29T09:39:47.286Z,44.25
2022-07-29T09:42:30.857Z,44.93
2022-07-29T09:44:58.914Z,45.78
2022-07-29T09:47:46.074Z,46.67
2022-07-29T09:50:14.605Z,46.89
2022-07-29T09:52:52.418Z,47.49
2022-07-29T09:55:21.181Z,47.52
2022-07-29T09:57:49.171Z,47.54
2022-07-29T10:00:21.499Z,47.74
2022-07-29T10:02:50.450Z,47.90
2022-07-29T10:05:36.595Z,47.47
2022-07-29T10:08:06.020Z,47.96
2022-07-29T10:10:38.000Z,47.04
2022-07-29T10:13:15.781Z,47.22
2022-07-29T10:15:47.368Z,46.77
2022-07-29T10:18:18.576Z,46.58
2022-07-29T10:20:46.830Z,46.34
2022-07-29T10:23:15.477Z,46.20
2022-07-29T10:25:46.378Z,46.64
2022-07-29T10:28:16.819Z,46.54
2022-07-29T10:30:47.056Z,46.35
2022-07-29T10:33:54.379Z,45.59
2022-07-29T10:37:21.327Z,46.06
2022-07-29T10:40:29.755Z,44.43
2022-07-29T10:43:27.208Z,43.86
2022-07-29T10:46:01.630Z,42.97
2022-07-29T10:48:30.242Z,42.57
2022-07-29T10:51:01.365Z,39.64
2022-07-29T10:53:54.365Z,40.25
2022-07-29T10:56:35.965Z,38.51
2022-07-29T11:02:41.989Z,38.76
2022-07-29T11:05:20.048Z,39.70
2022-07-29T11:08:20.331Z,39.06
2022-07-29T11:10:50.321Z,37.64
2022-07-29T11:13:43.188Z,36.59
2022-07-29T11:16:11.240Z,37.67
2022-07-29T11:19:14.062Z,37.90
2022-07-29T11:22:05.454Z,37.24
2022-07-29T11:24:34.950Z,37.21
2022-07-29T11:27:17.926Z,36.91
2022-07-29T11:29:54.476Z,37.07
2022-07-29T11:32:29.326Z,37.06
2022-07-29T11:35:38.270Z,36.82
2022-07-29T11:38:29.087Z,37.09
2022-07-29T11:41:19.016Z,37.49
2022-07-29T11:43:52.204Z,37.24
2022-07-29T11:46:50.441Z,36.85
2022-07-29T11:49:32.275Z,36.90
2022-07-29T11:52:04.821Z,35.73
2022-07-29T11:54:52.356Z,36.66
2022-07-29T11:57:38.668Z,36.49
2022-07-29T12:00:12.121Z,36.06
2022-07-29T12:02:48.631Z,36.66
2022-07-29T12:05:35.849Z,35.66
2022-07-29T12:08:15.630Z,35.43
2022-07-29T12:10:44.595Z,35.76
2022-07-29T12:13:14.032Z,35.99
2022-07-29T12:15:45.940Z,34.96
2022-07-29T12:18:19.966Z,35.68
2022-07-29T12:21:04.876Z,36.00
2022-07-29T12:23:34.978Z,36.46
2022-07-29T12:26:10.944Z,36.76
2022-07-29T12:28:50.035Z,36.54
2022-07-29T12:31:43.120Z,36.89
2022-07-29T12:34:06.059Z,36.52
2022-07-29T12:36:34.322Z,37.17
2022-07-29T12:39:03.365Z,37.21
2022-07-29T12:41:33.515Z,37.46
2022-07-29T12:44:01.533Z,37.38
2022-07-29T12:46:29.414Z,37.84
2022-07-29T12:48:57.882Z,37.91
2022-07-29T12:51:39.662Z,38.25
2022-07-29T12:54:15.185Z,38.15
2022-07-29T12:56:46.348Z,37.23
2022-07-29T12:59:20.414Z,37.79
2022-07-29T13:01:53.921Z,38.27
2022-07-29T13:04:37.747Z,38.65
2022-07-29T13:07:10.333Z,37.79
2022-07-29T13:10:24.663Z,39.09
2022-07-29T13:13:17.918Z,39.59
2022-07-29T13:16:10.650Z,39.62
2022-07-29T13:18:45.337Z,40.25
2022-07-29T13:21:18.844Z,39.25
2022-07-29T13:23:59.910Z,39.88
2022-07-29T13:26:42.533Z,39.98
2022-07-29T13:29:15.254Z,39.79
2022-07-29T13:31:49.590Z,40.23
2022-07-29T13:34:40.426Z,40.86
2022-07-29T13:37:28.417Z,40.80
2022-07-29T13:40:21.529Z,41.64
2022-07-29T13:42:51.923Z,41.89
2022-07-29T13:45:20.206Z,43.03
2022-07-29T13:47:49.463Z,43.11
2022-07-29T13:50:17.449Z,44.05
2022-07-29T13:52:45.255Z,44.97
2022-07-29T13:55:13.207Z,44.68
2022-07-29T13:57:41.017Z,45.56
2022-07-29T14:00:09.876Z,46.17
2022-07-29T14:02:39.470Z,46.61
2022-07-29T14:05:09.124Z,47.07
2022-07-29T14:07:42.182Z,48.35
2022-07-29T14:10:10.747Z,47.96
2022-07-29T14:12:39.386Z,48.25
2022-07-29T14:15:07.761Z,48.60
2022-07-29T14:17:35.867Z,48.88
2022-07-29T14:20:05.591Z,49.03
2022-07-29T14:22:37.836Z,48.34
2022-07-29T14:25:14.574Z,47.42
2022-07-29T14:27:44.750Z,47.36
2022-07-29T14:30:13.250Z,47.33
2022-07-29T14:32:42.846Z,46.05
2022-07-29T14:35:15.568Z,46.79
2022-07-29T14:37:43.574Z,47.58
2022-07-29T14:40:12.536Z,47.42
2022-07-29T14:42:41.218Z,47.54
2022-07-29T14:45:11.104Z,47.99
2022-07-29T14:47:40.621Z,48.77
2022-07-29T14:50:10.960Z,48.99
2022-07-29T14:52:39.777Z,49.11
2022-07-29T14:55:19.390Z,49.45
2022-07-29T14:57:49.396Z,49.43
2022-07-29T15:00:18.545Z,48.87
2022-07-29T15:03:01.312Z,47.82
2022-07-29T15:05:32.313Z,47.73
2022-07-29T15:08:02.519Z,48.04
2022-07-29T15:10:30.651Z,48.23
2022-07-29T15:12:58.565Z,48.38
2022-07-29T15:15:30.260Z,48.64
2022-07-29T15:17:58.112Z,48.58
2022-07-29T15:20:29.896Z,48.68
2022-07-29T15:22:58.262Z,48.35
2022-07-29T15:25:28.051Z,48.65
2022-07-29T15:28:00.968Z,49.00
2022-07-29T15:30:33.203Z,49.27
2022-07-29T15:33:04.320Z,49.00
2022-07-29T15:35:33.123Z,49.10
2022-07-29T15:38:01.067Z,49.03
2022-07-29T15:40:29.696Z,48.96
2022-07-29T15:42:58.478Z,48.98
2022-07-29T15:45:26.759Z,48.62
2022-07-29T15:47:59.911Z,48.72
2022-07-29T15:50:27.761Z,49.27
2022-07-29T15:52:55.566Z,49.21
2022-07-29T15:55:24.500Z,49.10
2022-07-29T15:57:55.186Z,48.90
2022-07-29T16:00:26.547Z,48.65
2022-07-29T16:02:54.395Z,48.22
2022-07-29T16:05:23.401Z,48.45
2022-07-29T16:07:51.135Z,47.85
2022-07-29T16:10:18.888Z,48.12
2022-07-29T16:12:46.714Z,47.39
2022-07-29T16:15:14.644Z,47.50
2022-07-29T16:17:42.525Z,47.55
2022-07-29T16:20:10.928Z,48.26
2022-07-29T16:22:41.654Z,48.18
2022-07-29T16:25:13.149Z,48.30
2022-07-29T16:27:42.049Z,48.37
2022-07-29T16:30:10.319Z,48.74
2022-07-29T16:32:41.532Z,48.70
2022-07-29T16:35:10.182Z,48.92
2022-07-29T16:37:39.291Z,49.67
2022-07-29T16:40:11.591Z,49.75
2022-07-29T16:42:47.570Z,49.66
2022-07-29T16:45:21.194Z,49.57
2022-07-29T16:47:49.986Z,49.74
2022-07-29T16:50:18.083Z,50.35
2022-07-29T16:52:46.094Z,51.75
2022-07-29T16:55:14.324Z,52.74
2022-07-29T16:57:43.894Z,52.61
2022-07-29T17:00:13.953Z,52.95
2022-07-29T17:02:46.120Z,53.63
2022-07-29T17:05:14.444Z,53.96
2022-07-29T17:07:42.924Z,53.69
2022-07-29T17:10:11.367Z,53.67
2022-07-29T17:12:41.054Z,54.15
2022-07-29T17:15:12.588Z,54.18
2022-07-29T17:17:56.495Z,53.47
2022-07-29T17:20:27.183Z,52.50
2022-07-29T17:22:55.629Z,52.11
2022-07-29T17:25:24.323Z,51.84
2022-07-29T17:27:58.798Z,51.90
2022-07-29T17:30:30.023Z,51.65
2022-07-29T17:32:57.853Z,51.48
2022-07-29T17:35:44.629Z,51.88
2022-07-29T17:38:12.464Z,52.46
2022-07-29T17:40:40.332Z,52.94
2022-07-29T17:43:09.545Z,53.05
2022-07-29T17:45:49.557Z,53.68
2022-07-29T17:48:20.198Z,54.09
2022-07-29T17:50:51.396Z,55.00
2022-07-29T17:53:19.561Z,55.12
2022-07-29T17:55:48.887Z,54.78
2022-07-29T17:58:16.913Z,55.11
2022-07-29T18:00:45.189Z,55.75
2022-07-29T18:03:13.332Z,56.43
2022-07-29T18:05:42.150Z,57.22
2022-07-29T18:08:11.029Z,57.21
2022-07-29T18:10:39.013Z,57.64
2022-07-29T18:13:07.413Z,57.60
2022-07-29T18:15:35.380Z,58.24
2022-07-29T18:18:03.361Z,57.81
2022-07-29T18:20:32.277Z,58.06
2022-07-29T18:23:00.638Z,57.93
2022-07-29T18:25:29.879Z,58.25
2022-07-29T18:28:00.482Z,58.87
2022-07-29T18:30:30.123Z,59.21
2022-07-29T18:33:20.287Z,59.24
2022-07-29T18:35:48.781Z,59.43
2022-07-29T18:38:17.028Z,59.91
2022-07-29T18:40:46.147Z,59.99
2022-07-29T18:43:14.284Z,60.13
2022-07-29T18:45:42.579Z,59.93
2022-07-29T18:48:12.972Z,60.12
2022-07-29T18:50:42.156Z,60.45
2022-07-29T18:53:10.294Z,60.75
2022-07-29T18:55:38.287Z,61.00
2022-07-29T18:58:09.454Z,61.17
2022-07-29T19:00:37.536Z,61.31
2022-07-29T19:03:05.606Z,65.25
2022-07-29T19:05:33.631Z,65.55
2022-07-29T19:08:01.905Z,60.09
2022-07-29T19:10:30.688Z,56.35
2022-07-29T19:12:59.001Z,56.83
2022-07-29T19:15:27.193Z,57.67
2022-07-29T19:17:59.155Z,58.56
2022-07-29T19:20:29.656Z,59.00
2022-07-29T19:22:57.948Z,59.69
2022-07-29T19:25:26.480Z,60.37
2022-07-29T19:27:54.302Z,64.95
2022-07-29T19:30:22.487Z,64.80
2022-07-29T19:32:53.274Z,57.11
2022-07-29T19:35:24.243Z,54.19
2022-07-29T19:37:53.851Z,54.85
2022-07-29T19:40:22.309Z,56.31
2022-07-29T19:42:51.776Z,58.55
2022-07-29T19:45:25.092Z,59.88
2022-07-29T19:47:59.058Z,61.15
2022-07-29T19:50:29.463Z,65.79
2022-07-29T19:52:58.054Z,64.18
2022-07-29T19:55:26.994Z,57.36
2022-07-29T19:57:55.475Z,55.16
2022-07-29T20:00:24.389Z,56.40
2022-07-29T20:02:52.823Z,58.60
2022-07-29T20:05:21.045Z,59.52
2022-07-29T20:07:57.220Z,65.60
2022-07-29T20:10:25.533Z,64.24
2022-07-29T20:12:53.833Z,57.76
2022-07-29T20:15:23.551Z,55.67
2022-07-29T20:17:56.622Z,57.29
2022-07-29T20:20:26.018Z,58.62
2022-07-29T20:22:54.538Z,59.99
2022-07-29T20:25:23.666Z,64.88
2022-07-29T20:27:52.671Z,63.93
2022-07-29T20:30:22.596Z,58.38
2022-07-29T20:32:51.096Z,56.18
2022-07-29T20:35:20.216Z,57.10
2022-07-29T20:37:52.108Z,58.54
2022-07-29T20:40:25.726Z,63.19
2022-07-29T20:42:55.527Z,63.28
2022-07-29T20:45:24.390Z,58.37
2022-07-29T20:47:53.080Z,56.39
2022-07-29T20:50:23.729Z,57.36
2022-07-29T20:52:53.196Z,58.96
2022-07-29T20:55:21.715Z,64.10
2022-07-29T20:57:49.583Z,65.70
2022-07-29T21:00:18.241Z,58.07
2022-07-29T21:02:46.578Z,55.31
2022-07-29T21:05:14.659Z,55.88
2022-07-29T21:07:42.627Z,57.47
2022-07-29T21:10:11.296Z,58.94
2022-07-29T21:12:39.184Z,64.92
2022-07-29T21:15:08.144Z,66.03
2022-07-29T21:17:36.313Z,57.99
2022-07-29T21:20:08.775Z,55.04
2022-07-29T21:22:36.630Z,55.61
2022-07-29T21:25:05.111Z,57.27
2022-07-29T21:27:51.530Z,58.70
2022-07-29T21:30:19.439Z,63.46
2022-07-29T21:32:47.765Z,64.27
2022-07-29T21:35:30.282Z,59.69
2022-07-29T21:38:03.769Z,56.63
2022-07-29T21:40:31.504Z,57.83
2022-07-29T21:42:59.367Z,59.26
2022-07-29T21:45:27.328Z,65.11
2022-07-29T21:47:55.247Z,65.43
2022-07-29T21:50:23.063Z,59.29
2022-07-29T21:52:50.803Z,56.28
2022-07-29T21:55:18.643Z,57.15
2022-07-29T21:57:47.248Z,58.49
2022-07-29T22:00:21.512Z,64.25
2022-07-29T22:02:49.753Z,65.07
2022-07-29T22:05:18.039Z,62.06
2022-07-29T22:07:55.761Z,57.28
2022-07-29T22:10:27.942Z,55.43
2022-07-29T22:12:59.050Z,57.16
2022-07-29T22:15:28.369Z,59.02
2022-07-29T22:17:56.873Z,65.72
2022-07-29T22:20:25.597Z,65.64
2022-07-29T22:22:54.300Z,63.55
2022-07-29T22:25:22.694Z,59.10
2022-07-29T22:27:50.682Z,56.13
2022-07-29T22:30:18.779Z,57.24
2022-07-29T22:32:47.957Z,58.95
2022-07-29T22:35:16.560Z,64.88
2022-07-29T22:37:44.479Z,66.67
2022-07-29T22:40:12.544Z,63.51
2022-07-29T22:42:40.921Z,56.66
2022-07-29T22:45:10.817Z,55.53
2022-07-29T22:47:46.653Z,56.85
2022-07-29T22:50:17.273Z,58.55
2022-07-29T22:52:47.101Z,65.75
2022-07-29T22:55:15.670Z,66.01
2022-07-29T22:57:43.616Z,59.30
2022-07-29T23:00:13.024Z,56.30
2022-07-29T23:02:41.724Z,57.24
2022-07-29T23:05:10.651Z,63.87
2022-07-29T23:07:38.508Z,65.32
2022-07-29T23:10:06.758Z,57.56
2022-07-29T23:12:34.663Z,54.97
2022-07-29T23:15:02.613Z,56.30
2022-07-29T23:17:36.324Z,58.10
2022-07-29T23:20:09.955Z,64.50
2022-07-29T23:22:37.808Z,64.52
2022-07-29T23:25:06.449Z,57.47
2022-07-29T23:27:34.323Z,55.44
2022-07-29T23:30:02.852Z,56.66
2022-07-29T23:32:30.821Z,58.32
2022-07-29T23:34:58.665Z,64.37
2022-07-29T23:37:27.090Z,64.68
2022-07-29T23:39:55.087Z,58.11
2022-07-29T23:42:23.095Z,56.18
2022-07-29T23:44:51.006Z,57.39
2022-07-29T23:47:18.744Z,59.19
2022-07-29T23:49:49.901Z,64.94
2022-07-29T23:52:18.996Z,65.96
2022-07-29T23:54:46.831Z,58.73
2022-07-29T23:57:15.086Z,56.05
2022-07-29T23:59:42.879Z,57.29
